createdAt,value
2022-08-07T00:00:54.586Z,54.89
2022-08-07T00:03:25.671Z,54.91
2022-08-07T00:05:54.300Z,54.98
2022-08-07T00:08:25.409Z,54.80
2022-08-07T00:10:57.639Z,55.10
2022-08-07T00:13:26.746Z,55.27
2022-08-07T00:15:55.529Z,55.28
2022-08-07T00:18:25.786Z,55.27
2022-08-07T00:21:08.209Z,55.40
2022-08-07T00:23:52.342Z,55.38
2022-08-07T00:26:48.668Z,55.34
2022-08-07T00:29:07.282Z,55.57
2022-08-07T00:31:37.270Z,55.91
2022-08-07T00:34:08.874Z,55.92
2022-08-07T00:36:42.750Z,56.00
2022-08-07T00:39:16.842Z,56.12
2022-08-07T00:42:01.728Z,56.54
2022-08-07T00:44:33.913Z,55.92
2022-08-07T00:47:02.986Z,55.86
2022-08-07T00:50:21.529Z,56.17
2022-08-07T00:52:20.766Z,56.17
2022-08-07T00:54:53.900Z,56.23
2022-08-07T00:57:25.277Z,56.34
2022-08-07T00:59:54.278Z,56.36
2022-08-07T01:02:29.205Z,56.74
2022-08-07T01:04:59.101Z,56.01
2022-08-07T01:07:29.203Z,55.67
2022-08-07T01:10:07.183Z,55.52
2022-08-07T01:12:53.299Z,55.52
2022-08-07T01:16:00.470Z,55.27
2022-08-07T01:18:17.011Z,55.54
2022-08-07T01:20:59.639Z,55.55
2022-08-07T01:23:36.892Z,55.38
2022-08-07T01:26:16.790Z,55.49
2022-08-07T01:28:51.637Z,55.15
2022-08-07T01:31:41.498Z,55.20
2022-08-07T01:34:14.416Z,55.11
2022-08-07T01:36:43.981Z,55.10
2022-08-07T01:39:17.708Z,54.74
2022-08-07T01:42:01.705Z,55.00
2022-08-07T01:44:42.518Z,55.00
2022-08-07T01:48:19.100Z,54.97
2022-08-07T01:50:05.300Z,54.99
2022-08-07T01:52:36.378Z,55.10
2022-08-07T01:55:07.630Z,55.27
2022-08-07T01:58:06.488Z,55.57
2022-08-07T02:00:49.044Z,55.88
2022-08-07T02:03:26.534Z,56.18
2022-08-07T02:06:31.986Z,56.81
2022-08-07T02:09:09.374Z,57.17
2022-08-07T02:12:02.848Z,57.48
2022-08-07T02:14:41.192Z,57.58
2022-08-07T02:17:27.616Z,57.19
2022-08-07T02:20:04.045Z,57.67
2022-08-07T02:22:41.195Z,57.65
2022-08-07T02:25:17.331Z,57.54
2022-08-07T02:27:57.006Z,57.65
2022-08-07T02:30:25.898Z,57.33
2022-08-07T02:33:00.615Z,57.40
2022-08-07T02:36:28.415Z,57.27
2022-08-07T02:38:35.770Z,57.46
2022-08-07T02:41:05.807Z,57.02
2022-08-07T02:43:39.488Z,56.97
2022-08-07T02:46:11.093Z,56.95
2022-08-07T02:48:39.787Z,56.52
2022-08-07T02:51:42.019Z,56.32
2022-08-07T02:54:10.585Z,56.22
2022-08-07T02:56:42.889Z,55.81
2022-08-07T02:59:24.067Z,55.75
2022-08-07T03:02:02.239Z,55.58
2022-08-07T03:04:32.228Z,55.50
2022-08-07T03:07:07.046Z,55.21
2022-08-07T03:09:44.473Z,54.94
2022-08-07T03:12:22.726Z,54.64
2022-08-07T03:15:07.919Z,54.71
2022-08-07T03:17:53.252Z,54.18
2022-08-07T03:20:24.244Z,54.01
2022-08-07T03:22:54.235Z,53.86
2022-08-07T03:25:23.909Z,54.01
2022-08-07T03:28:37.625Z,53.71
2022-08-07T03:31:24.447Z,53.49
2022-08-07T03:34:01.243Z,53.37
2022-08-07T03:36:33.703Z,53.28
2022-08-07T03:39:14.033Z,53.17
2022-08-07T03:41:47.766Z,52.77
2022-08-07T03:44:21.688Z,52.78
2022-08-07T03:47:11.395Z,52.40
2022-08-07T03:49:47.774Z,52.26
2022-08-07T03:52:27.347Z,52.21
2022-08-07T03:55:07.428Z,52.14
2022-08-07T03:58:33.992Z,51.91
2022-08-07T04:00:37.440Z,51.54
2022-08-07T04:03:05.953Z,51.32
2022-08-07T04:05:45.551Z,50.94
2022-08-07T04:08:28.792Z,50.95
2022-08-07T04:12:21.074Z,50.92
2022-08-07T04:14:10.006Z,50.83
2022-08-07T04:16:38.074Z,50.69
2022-08-07T04:19:14.996Z,50.16
2022-08-07T04:21:59.453Z,50.03
2022-08-07T04:24:41.154Z,49.69
2022-08-07T04:27:15.125Z,49.60
2022-08-07T04:29:58.539Z,49.70
2022-08-07T04:33:10.523Z,48.99
2022-08-07T04:35:51.116Z,48.93
2022-08-07T04:38:26.685Z,48.13
2022-08-07T04:40:56.757Z,47.88
2022-08-07T04:44:12.865Z,47.57
2022-08-07T04:47:04.761Z,47.46
2022-08-07T04:49:37.765Z,46.83
2022-08-07T04:52:51.228Z,46.79
2022-08-07T04:58:13.071Z,46.59
2022-08-07T04:59:17.479Z,46.22
2022-08-07T05:01:44.892Z,45.85
2022-08-07T05:04:47.239Z,45.67
2022-08-07T05:07:30.565Z,45.22
2022-08-07T05:10:21.719Z,44.61
2022-08-07T05:13:01.557Z,43.86
2022-08-07T05:15:51.014Z,43.08
2022-08-07T05:18:34.535Z,42.33
2022-08-07T05:21:05.839Z,41.66
2022-08-07T05:23:59.329Z,41.89
2022-08-07T05:26:29.754Z,41.43
2022-08-07T05:29:06.933Z,40.76
2022-08-07T05:31:41.536Z,40.33
2022-08-07T05:34:26.381Z,40.53
2022-08-07T05:36:56.799Z,40.31
2022-08-07T05:40:06.030Z,40.14
2022-08-07T05:42:33.627Z,39.53
2022-08-07T05:45:25.846Z,38.93
2022-08-07T05:48:01.843Z,38.63
2022-08-07T05:50:42.662Z,38.31
2022-08-07T05:54:08.449Z,37.25
2022-08-07T05:56:05.822Z,37.01
2022-08-07T05:58:40.393Z,36.42
2022-08-07T06:01:20.673Z,36.20
2022-08-07T06:03:58.794Z,35.59
2022-08-07T06:06:34.496Z,35.98
2022-08-07T06:09:06.407Z,36.66
2022-08-07T06:11:39.254Z,37.09
2022-08-07T06:14:11.988Z,37.08
2022-08-07T06:16:50.334Z,37.89
2022-08-07T06:19:57.866Z,37.26
2022-08-07T06:22:23.277Z,37.56
2022-08-07T06:25:01.083Z,38.19
2022-08-07T06:28:00.336Z,38.26
2022-08-07T06:30:36.021Z,39.10
2022-08-07T06:33:16.234Z,39.37
2022-08-07T06:36:06.072Z,39.98
2022-08-07T06:38:35.857Z,40.31
2022-08-07T06:41:12.901Z,40.48
2022-08-07T06:43:46.091Z,40.80
2022-08-07T06:46:31.054Z,40.46
2022-08-07T06:49:04.037Z,40.86
2022-08-07T06:51:49.671Z,41.01
2022-08-07T06:55:33.424Z,40.71
2022-08-07T06:57:11.964Z,41.34
2022-08-07T07:00:17.477Z,41.32
2022-08-07T07:02:48.445Z,41.96
2022-08-07T07:06:02.815Z,42.49
2022-08-07T07:08:18.813Z,43.62
2022-08-07T07:10:57.340Z,44.35
2022-08-07T07:13:56.185Z,44.48
2022-08-07T07:16:30.349Z,45.15
2022-08-07T07:19:19.012Z,45.24
2022-08-07T07:22:05.327Z,44.59
2022-08-07T07:24:43.051Z,44.68
2022-08-07T07:27:18.549Z,44.61
2022-08-07T07:30:09.905Z,44.46
2022-08-07T07:32:40.637Z,44.46
2022-08-07T07:35:12.256Z,44.14
2022-08-07T07:37:49.590Z,43.31
2022-08-07T07:40:26.100Z,42.57
2022-08-07T07:42:57.871Z,41.60
2022-08-07T07:46:53.341Z,41.97
2022-08-07T07:48:35.763Z,41.79
2022-08-07T07:51:07.782Z,41.64
2022-08-07T07:53:51.382Z,39.52
2022-08-07T07:56:29.928Z,37.35
2022-08-07T07:59:02.966Z,35.06
2022-08-07T08:02:02.378Z,34.45
2022-08-07T08:04:25.771Z,34.46
2022-08-07T08:07:02.708Z,35.29
2022-08-07T08:09:52.444Z,35.90
2022-08-07T08:12:51.199Z,36.53
2022-08-07T08:15:12.843Z,35.96
2022-08-07T08:17:57.572Z,35.66
2022-08-07T08:20:31.946Z,35.51
2022-08-07T08:23:20.539Z,35.94
2022-08-07T08:26:12.028Z,35.08
2022-08-07T08:28:45.620Z,34.50
2022-08-07T08:31:59.206Z,33.55
2022-08-07T08:34:27.402Z,32.02
2022-08-07T08:36:58.564Z,30.69
2022-08-07T08:39:39.239Z,29.48
2022-08-07T08:42:36.359Z,28.40
2022-08-07T08:45:58.350Z,27.11
2022-08-07T08:48:50.904Z,26.68
2022-08-07T08:52:12.370Z,26.49
2022-08-07T08:54:32.423Z,24.88
2022-08-07T08:57:12.870Z,24.38
2022-08-07T08:59:53.861Z,23.18
2022-08-07T09:02:40.427Z,22.35
2022-08-07T09:05:36.961Z,22.29
2022-08-07T09:08:28.313Z,21.42
2022-08-07T09:11:50.440Z,20.87
2022-08-07T09:14:20.566Z,20.18
2022-08-07T09:17:07.926Z,19.82
2022-08-07T09:19:57.750Z,18.26
2022-08-07T09:24:33.018Z,19.29
2022-08-07T09:26:22.157Z,20.90
2022-08-07T09:30:01.206Z,20.61
2022-08-07T09:31:55.265Z,20.40
2022-08-07T09:34:29.880Z,20.92
2022-08-07T09:37:48.584Z,20.76
2022-08-07T09:40:32.809Z,20.63
2022-08-07T09:43:19.699Z,20.88
2022-08-07T09:47:52.710Z,21.67
2022-08-07T09:50:01.669Z,21.86
2022-08-07T09:52:48.553Z,21.99
2022-08-07T09:55:30.000Z,21.98
2022-08-07T09:58:32.535Z,20.69
2022-08-07T10:01:51.480Z,20.17
2022-08-07T10:04:47.553Z,21.06
2022-08-07T10:07:26.135Z,20.65
2022-08-07T10:10:12.136Z,20.47
2022-08-07T10:13:55.041Z,20.54
2022-08-07T10:16:40.867Z,21.37
2022-08-07T10:19:37.609Z,19.89
2022-08-07T10:22:33.827Z,19.37
2022-08-07T10:25:42.797Z,19.57
2022-08-07T10:28:31.104Z,20.06
2022-08-07T10:31:17.859Z,19.57
2022-08-07T10:34:18.368Z,19.98
2022-08-07T10:37:19.594Z,21.50
2022-08-07T10:40:06.105Z,21.12
2022-08-07T10:43:07.366Z,20.43
2022-08-07T10:46:04.692Z,20.15
2022-08-07T10:48:38.619Z,19.87
2022-08-07T10:52:01.455Z,19.72
2022-08-07T10:55:00.742Z,21.53
2022-08-07T10:57:56.338Z,22.61
2022-08-07T11:00:36.633Z,22.67
2022-08-07T11:03:28.058Z,21.29
2022-08-07T11:06:21.979Z,20.14
2022-08-07T11:09:04.270Z,18.71
2022-08-07T11:11:52.170Z,18.12
2022-08-07T11:15:00.226Z,17.44
2022-08-07T11:17:45.108Z,17.49
2022-08-07T11:20:51.482Z,18.79
2022-08-07T11:23:54.536Z,20.04
2022-08-07T11:26:24.720Z,21.82
2022-08-07T11:29:01.566Z,23.85
2022-08-07T11:31:52.057Z,25.57
2022-08-07T11:34:29.023Z,24.90
2022-08-07T11:37:13.195Z,25.96
2022-08-07T11:40:28.070Z,27.99
2022-08-07T11:42:59.150Z,29.79
2022-08-07T11:45:50.056Z,32.25
2022-08-07T11:48:36.325Z,33.36
2022-08-07T11:51:41.143Z,33.32
2022-08-07T11:54:38.788Z,33.81
2022-08-07T11:57:59.575Z,34.33
2022-08-07T12:01:02.226Z,35.12
2022-08-07T12:03:41.333Z,35.84
2022-08-07T12:06:40.550Z,36.31
2022-08-07T12:09:24.791Z,36.21
2022-08-07T12:12:14.381Z,37.03
2022-08-07T12:14:55.316Z,37.19
2022-08-07T12:17:37.428Z,37.37
2022-08-07T12:20:52.211Z,37.03
2022-08-07T12:24:06.105Z,35.80
2022-08-07T12:26:53.790Z,35.47
2022-08-07T12:29:38.698Z,35.24
2022-08-07T12:32:29.978Z,35.62
2022-08-07T12:35:02.421Z,35.48
2022-08-07T12:38:09.013Z,35.68
2022-08-07T12:44:03.617Z,36.75
2022-08-07T12:46:26.411Z,37.85
2022-08-07T12:49:25.379Z,38.73
2022-08-07T12:52:14.580Z,39.28
2022-08-07T12:54:59.018Z,40.04
2022-08-07T12:57:39.217Z,40.40
2022-08-07T13:00:34.492Z,40.65
2022-08-07T13:03:56.336Z,40.46
2022-08-07T13:06:54.392Z,40.83
2022-08-07T13:10:19.633Z,40.82
2022-08-07T13:13:48.734Z,41.02
2022-08-07T13:16:25.022Z,41.29
2022-08-07T13:19:45.962Z,41.60
2022-08-07T13:22:28.088Z,41.43
2022-08-07T13:25:06.758Z,42.33
2022-08-07T13:28:10.806Z,42.77
2022-08-07T13:30:49.176Z,42.59
2022-08-07T13:34:32.788Z,42.49
2022-08-07T13:36:35.378Z,42.62
2022-08-07T13:39:13.026Z,42.20
2022-08-07T13:41:57.030Z,42.32
2022-08-07T13:44:34.596Z,42.42
2022-08-07T13:47:09.862Z,41.91
2022-08-07T13:50:33.175Z,41.48
2022-08-07T13:52:43.159Z,41.34
2022-08-07T13:55:19.750Z,41.08
2022-08-07T13:58:28.079Z,41.62
2022-08-07T14:01:09.089Z,41.52
2022-08-07T14:04:07.114Z,41.05
2022-08-07T14:06:33.458Z,41.33
2022-08-07T14:09:04.651Z,41.69
2022-08-07T14:11:53.293Z,41.84
2022-08-07T14:14:40.048Z,41.86
2022-08-07T14:17:32.342Z,42.15
2022-08-07T14:20:42.347Z,42.67
2022-08-07T14:23:59.258Z,42.41
2022-08-07T14:26:30.027Z,42.62
2022-08-07T14:29:10.418Z,43.26
2022-08-07T14:31:56.597Z,43.62
2022-08-07T14:34:30.708Z,43.24
2022-08-07T14:37:04.120Z,43.63
2022-08-07T14:40:16.829Z,43.67
2022-08-07T14:45:21.258Z,43.57
2022-08-07T14:47:59.046Z,43.27
2022-08-07T14:50:29.230Z,43.49
2022-08-07T14:56:02.015Z,43.05
2022-08-07T14:58:34.018Z,43.50
2022-08-07T15:06:40.440Z,42.87
2022-08-07T15:09:58.256Z,42.85
2022-08-07T15:12:26.034Z,43.59
2022-08-07T15:15:21.216Z,44.08
2022-08-07T15:18:04.498Z,43.92
2022-08-07T15:20:55.300Z,43.96
2022-08-07T15:25:02.724Z,44.36
2022-08-07T15:26:22.414Z,44.26
2022-08-07T15:29:00.946Z,45.22
2022-08-07T15:32:00.570Z,44.54
2022-08-07T15:34:57.005Z,45.20
2022-08-07T15:38:17.713Z,45.12
2022-08-07T15:40:34.272Z,45.30
2022-08-07T15:46:32.400Z,45.72
2022-08-07T15:49:12.496Z,45.13
2022-08-07T15:54:34.619Z,45.79
2022-08-07T15:57:39.467Z,45.62
2022-08-07T16:00:06.324Z,46.09
2022-08-07T16:02:40.620Z,46.13
2022-08-07T16:05:20.494Z,46.16
2022-08-07T16:08:33.333Z,46.19
2022-08-07T16:10:48.750Z,46.29
2022-08-07T16:13:57.500Z,46.48
2022-08-07T16:16:47.756Z,46.48
2022-08-07T16:19:42.883Z,46.67
2022-08-07T16:22:38.140Z,46.64
2022-08-07T16:25:54.982Z,47.34
2022-08-07T16:30:07.438Z,47.40
2022-08-07T16:32:05.002Z,47.69
2022-08-07T16:34:48.669Z,47.93
2022-08-07T16:38:04.747Z,48.34
2022-08-07T16:41:01.479Z,48.15
2022-08-07T16:44:46.351Z,48.47
2022-08-07T16:47:25.163Z,49.00
2022-08-07T16:50:35.711Z,49.21
2022-08-07T16:54:01.264Z,49.80
2022-08-07T16:56:42.093Z,50.17
2022-08-07T16:59:45.979Z,50.32
2022-08-07T17:03:04.991Z,50.66
2022-08-07T17:06:01.740Z,50.60
2022-08-07T17:08:17.572Z,50.26
2022-08-07T17:10:55.736Z,51.37
2022-08-07T17:14:17.829Z,51.61
2022-08-07T17:16:56.119Z,51.73
2022-08-07T17:20:01.877Z,51.66
2022-08-07T17:22:37.682Z,51.82
2022-08-07T17:25:47.369Z,51.56
2022-08-07T17:28:22.331Z,52.24
2022-08-07T17:30:59.704Z,52.41
2022-08-07T17:33:39.004Z,52.40
2022-08-07T17:36:28.736Z,52.57
2022-08-07T17:39:24.225Z,52.80
2022-08-07T17:42:36.002Z,53.25
2022-08-07T17:45:55.963Z,53.37
2022-08-07T17:48:31.038Z,52.99
2022-08-07T17:51:23.084Z,53.39
2022-08-07T17:54:29.571Z,53.71
2022-08-07T17:57:56.400Z,54.28
2022-08-07T18:00:33.077Z,54.33
2022-08-07T18:03:11.187Z,54.30
2022-08-07T18:06:02.731Z,54.61
2022-08-07T18:09:01.121Z,54.93
2022-08-07T18:12:30.260Z,54.69
2022-08-07T18:15:09.702Z,54.91
2022-08-07T18:18:39.813Z,55.20
2022-08-07T18:21:06.855Z,55.06
2022-08-07T18:24:09.171Z,55.16
2022-08-07T18:26:40.656Z,54.99
2022-08-07T18:30:06.990Z,55.12
2022-08-07T18:32:51.635Z,55.76
2022-08-07T18:36:02.887Z,56.13
2022-08-07T18:39:01.302Z,56.06
2022-08-07T18:42:04.024Z,55.74
2022-08-07T18:45:43.304Z,56.18
2022-08-07T18:48:03.000Z,56.30
2022-08-07T18:50:46.474Z,56.48
2022-08-07T18:53:33.427Z,56.82
2022-08-07T18:56:13.576Z,56.59
2022-08-07T18:58:56.914Z,56.78
2022-08-07T19:02:18.993Z,57.09
2022-08-07T19:04:57.418Z,57.76
2022-08-07T19:07:51.993Z,58.10
2022-08-07T19:10:31.313Z,58.69
2022-08-07T19:13:21.442Z,58.65
2022-08-07T19:16:43.740Z,59.00
2022-08-07T19:19:06.491Z,58.54
2022-08-07T19:21:56.267Z,57.82
2022-08-07T19:24:43.322Z,58.66
2022-08-07T19:28:30.306Z,58.25
2022-08-07T19:31:01.229Z,58.83
2022-08-07T19:33:02.791Z,58.88
2022-08-07T19:35:40.182Z,58.43
2022-08-07T19:38:15.899Z,59.01
2022-08-07T19:40:50.758Z,58.47
2022-08-07T19:43:45.541Z,59.34
2022-08-07T19:46:14.726Z,58.95
2022-08-07T19:48:53.929Z,59.87
2022-08-07T19:51:52.453Z,59.60
2022-08-07T19:54:35.149Z,59.41
2022-08-07T19:58:02.755Z,59.88
2022-08-07T20:00:09.044Z,60.02
2022-08-07T20:02:53.275Z,60.14
2022-08-07T20:05:28.992Z,60.08
2022-08-07T20:08:00.285Z,59.76
2022-08-07T20:10:51.960Z,60.24
2022-08-07T20:13:32.039Z,60.05
2022-08-07T20:16:06.080Z,60.04
2022-08-07T20:18:35.050Z,60.26
2022-08-07T20:21:14.269Z,60.17
2022-08-07T20:23:48.484Z,60.23
2022-08-07T20:26:32.077Z,59.99
2022-08-07T20:29:10.636Z,60.09
2022-08-07T20:31:52.432Z,60.53
2022-08-07T20:34:48.870Z,60.88
2022-08-07T20:37:12.711Z,61.20
2022-08-07T20:40:04.021Z,61.52
2022-08-07T20:42:37.485Z,62.09
2022-08-07T20:47:57.951Z,62.95
2022-08-07T20:50:30.596Z,64.15
2022-08-07T20:52:59.410Z,64.73
2022-08-07T20:55:32.210Z,65.73
2022-08-07T20:58:11.877Z,65.85
2022-08-07T21:00:53.869Z,67.33
2022-08-07T21:03:25.867Z,66.19
2022-08-07T21:06:21.802Z,67.09
2022-08-07T21:09:03.681Z,66.60
2022-08-07T21:11:50.328Z,67.26
2022-08-07T21:14:37.002Z,69.10
2022-08-07T21:18:03.821Z,69.08
2022-08-07T21:20:06.412Z,69.55
2022-08-07T21:22:57.728Z,70.42
2022-08-07T21:25:56.256Z,69.98
2022-08-07T21:28:50.387Z,69.98
2022-08-07T21:32:42.625Z,70.29
2022-08-07T21:35:11.314Z,71.16
2022-08-07T21:37:58.863Z,70.31
2022-08-07T21:40:35.653Z,70.21
2022-08-07T21:43:10.709Z,70.93
2022-08-07T21:46:10.452Z,70.53
2022-08-07T21:48:56.407Z,71.04
2022-08-07T21:51:27.501Z,70.19
2022-08-07T21:54:09.887Z,70.70
2022-08-07T21:57:31.505Z,70.92
2022-08-07T22:00:22.789Z,70.23
2022-08-07T22:03:36.976Z,71.50
2022-08-07T22:06:30.424Z,71.10
2022-08-07T22:09:13.065Z,71.76
2022-08-07T22:11:52.891Z,71.08
2022-08-07T22:14:23.636Z,70.90
2022-08-07T22:17:05.132Z,71.29
2022-08-07T22:20:02.681Z,72.79
2022-08-07T22:22:44.571Z,72.96
2022-08-07T22:25:18.986Z,72.29
2022-08-07T22:28:29.338Z,73.42
2022-08-07T22:31:06.833Z,72.97
2022-08-07T22:33:56.648Z,72.46
2022-08-07T22:37:02.111Z,73.39
2022-08-07T22:40:01.703Z,71.88
2022-08-07T22:42:37.148Z,70.60
2022-08-07T22:45:10.971Z,69.58
2022-08-07T22:48:31.738Z,69.29
2022-08-07T22:51:13.988Z,68.92
2022-08-07T22:54:11.035Z,68.86
2022-08-07T22:57:19.771Z,69.09
2022-08-07T23:00:14.774Z,69.12
2022-08-07T23:03:04.012Z,68.40
2022-08-07T23:06:09.606Z,68.33
2022-08-07T23:09:01.804Z,68.60
2022-08-07T23:12:39.862Z,67.97
2022-08-07T23:15:22.113Z,68.30
2022-08-07T23:18:28.735Z,68.27
2022-08-07T23:21:36.559Z,68.26
2022-08-07T23:24:28.520Z,68.65
2022-08-07T23:27:07.802Z,69.17
2022-08-07T23:30:38.398Z,69.39
2022-08-07T23:34:33.726Z,68.68
2022-08-07T23:36:29.160Z,68.49
2022-08-07T23:39:21.988Z,68.71
2022-08-07T23:42:04.399Z,68.06
2022-08-07T23:44:54.053Z,68.62
2022-08-07T23:47:27.551Z,68.85
2022-08-07T23:50:07.140Z,68.70
2022-08-07T23:53:05.642Z,69.03
2022-08-07T23:55:51.778Z,68.53
2022-08-07T23:58:29.593Z,68.43
